Terminal Aerodrome Forecast
Issued by NWS Shreveport, LA

Home | Current Version | Previous Version | Text Only | Print | Product List | Glossary On
Versions: 1 2 3 4 5 6 7 8 9 10 11 12
144
FTUS44 KSHV 170541
TAFSHV
TAF
KSHV 170541Z 1706/1806 06008KT 4SM SHRA BR SCT007 OVC015
      TEMPO 1706/1709 2SM SHRA BR OVC006
     FM170900 06008KT 6SM BR OVC007
     FM171300 VRB04KT 5SM BR OVC006
     FM171600 15004KT P6SM OVC007
     FM171800 19004KT P6SM BKN013
     FM180000 04003KT P6SM BKN020=

USA.gov is the U.S. government's official web portal to all federal, state and local government web resources and services.